Main page
METAR-TAF:

METAR-TAF

Airports :

Athens International Airport

Athens, Greece

latitude: 37-56N, longitude: 023-56E, elevation: 94 m

Current weather observation

The report was made 16 minutes ago, at 19:20 UTC
Wind 7 kt from the North/Northwest, varying between West/Northwest and North/Northeast
Temperature 15°C
Humidity 31%
Pressure 1018 hPa
Visibility 10 km or more
no clouds below 1500 m and no cumulonimbus

METAR: LGAV 091920Z 34007KT 300V020 CAVOK 15/M02 Q1018 NOSIG

Time: 22:36 (19:36 UTC)

Forecast

The report was made 2 hours and 36 minutes ago, at 17:00 UTC
Forecast valid from 09 at 18 UTC to 10 at 18 UTC
Wind 20 kt from the North/Northeast with gusts up to 30 kt
Visibility 10 km or more
Few clouds at a height of 2500 ft
Becoming
from 09 at 18 UTC to 09 at 20 UTC
Wind 15 kt from the North with gusts up to 25 kt

TAF: LGAV 091700Z 0918/1018 03020G30KT 9999 FEW025 BECMG 0918/0920 35015G25KT

Weather observations and forecasts of more than 4000 airports (METAR and TAF reports).

The available stations are represented by yellow and red dots on the map.

Hover mouse over dot to see the name of the station.

Then click to see weather observations and forecasts.

To change the map : click on the green buttons with a black cross to zoom in, on the green button with a dash to zoom out, or on the green arrows for adjacent maps.


METAR-TAF: